^^
Station Historical Data
Daily Summary for October 13, 2017 Units:  English    Metric   Both
« Previous Day
Next Day »
Daily Weekly Monthly Yearly Custom
  High: Low: Average:
Temperature: 66.4 °F 44.4 °F 55.9 °F
Dew Point: 57.4 °F 41.9 °F 49.8 °F
Humidity: 93% 62% 81%
Wind Speed: 3.0mph 0.0mph 0.4mph
Wind Gust: 9.0mph - -
Wind- - WSW
Pressure: 30.48 in 30.34 in -
Precipitation: 0.00 in    
Historical Graphs
 
 
Tabular Data for October 13, 2017
Time Temperature Dew Point Pressure Wind Wind Speed Wind Gust Humidity Rainfall Rate (Hourly) Conditions
00:15 50.5 °F 42.9 °F 30.42 in Calm   6.0 mph 75% 0.00 in RA
00:30 50.1 °F 42.8 °F 30.43 in Calm   6.0 mph 76% 0.00 in CLR
00:45 49.7 °F 42.4 °F 30.43 in East 1.0 mph 3.0 mph 76% 0.00 in CLR
01:00 49.3 °F 42.4 °F 30.43 in Calm   2.0 mph 77% 0.00 in CLR
02:15 47.9 °F 42.7 °F 30.44 in North 1.0 mph 3.0 mph 82% 0.00 in FEW
02:30 47.7 °F 42.8 °F 30.44 in Calm   3.0 mph 83% 0.00 in FEW
02:45 47.5 °F 42.6 °F 30.44 in Calm   2.0 mph 83% 0.00 in FEW
03:00 47.2 °F 42.6 °F 30.44 in Calm   4.0 mph 84% 0.00 in FEW
03:15 46.7 °F 42.4 °F 30.44 in Calm     85% 0.00 in FEW
03:30 46.5 °F 42.5 °F 30.44 in Calm   1.0 mph 86% 0.00 in FEW
03:45 46.1 °F 42.4 °F 30.44 in Calm     87% 0.00 in FEW
04:00 45.6 °F 42.2 °F 30.44 in Calm     88% 0.00 in FEW
04:15 45.3 °F 42.2 °F 30.45 in Calm     89% 0.00 in CLR
04:30 45.3 °F 42.6 °F 30.45 in Calm     90% 0.00 in CLR
04:45 45.6 °F 42.8 °F 30.45 in Calm     90% 0.00 in CLR
05:00 46.0 °F 43.2 °F 30.45 in Calm   1.0 mph 90% 0.00 in CLR
05:15 46.5 °F 43.1 °F 30.44 in Calm   2.0 mph 88% 0.00 in SCT
05:30 46.3 °F 42.9 °F 30.44 in Calm   2.0 mph 88% 0.00 in SCT
05:45 46.0 °F 42.7 °F 30.44 in Calm   1.0 mph 88% 0.00 in SCT
06:00 45.7 °F 42.6 °F 30.45 in Calm     89% 0.00 in SCT
06:15 44.9 °F 42.2 °F 30.45 in Calm     90% 0.00 in SCT
06:30 44.7 °F 42.2 °F 30.45 in Calm     91% 0.00 in SCT
06:45 44.4 °F 41.9 °F 30.45 in Calm     91% 0.00 in SCT
07:00 44.4 °F 42.2 °F 30.46 in Calm     92% 0.00 in SCT
07:15 44.4 °F 42.2 °F 30.46 in Calm     92% 0.00 in SCT
07:30 45.0 °F 43.1 °F 30.46 in Calm   1.0 mph 93% 0.00 in SCT
07:45 46.1 °F 43.6 °F 30.47 in Calm   3.0 mph 91% 0.00 in SCT
08:00 47.0 °F 43.9 °F 30.47 in Calm   3.0 mph 89% 0.00 in SCT
08:15 47.7 °F 44.0 °F 30.47 in NW 2.0 mph 3.0 mph 87% 0.00 in SCT
08:30 48.3 °F 44.3 °F 30.47 in NNW 1.0 mph 4.0 mph 86% 0.00 in SCT
08:45 49.3 °F 44.9 °F 30.47 in North 1.0 mph 3.0 mph 85% 0.00 in SCT
09:00 50.2 °F 45.5 °F 30.47 in North 1.0 mph 4.0 mph 84% 0.00 in SCT
09:15 50.9 °F 45.9 °F 30.47 in Calm   3.0 mph 83% 0.00 in BKN
09:30 51.7 °F 46.4 °F 30.47 in Calm   2.0 mph 82% 0.00 in BKN
09:45 52.0 °F 46.0 °F 30.47 in WNW 1.0 mph 3.0 mph 80% 0.00 in BKN
10:00 52.6 °F 46.9 °F 30.47 in NW 1.0 mph 3.0 mph 81% 0.00 in BKN
10:15 54.4 °F 49.3 °F 30.47 in Calm   7.0 mph 83% 0.00 in BKN
10:30 55.9 °F 50.1 °F 30.47 in Calm   4.0 mph 81% 0.00 in BKN
10:45 56.3 °F 49.9 °F 30.48 in Calm   5.0 mph 79% 0.00 in BKN
11:00 57.0 °F 50.2 °F 30.47 in Calm   5.0 mph 78% 0.00 in BKN
11:15 57.6 °F 51.1 °F 30.47 in Calm   3.0 mph 79% 0.00 in BKN
11:30 59.1 °F 51.2 °F 30.46 in SW 2.0 mph 7.0 mph 75% 0.00 in BKN
11:45 59.3 °F 51.0 °F 30.46 in WNW 1.0 mph 8.0 mph 74% 0.00 in BKN
12:00 59.2 °F 51.3 °F 30.45 in Calm   5.0 mph 75% 0.00 in BKN
12:15 59.9 °F 51.9 °F 30.45 in NNW 2.0 mph 7.0 mph 75% 0.00 in BKN
12:30 60.4 °F 52.1 °F 30.44 in NW 1.0 mph 8.0 mph 74% 0.00 in BKN
12:45 60.9 °F 52.6 °F 30.43 in Calm   5.0 mph 74% 0.00 in BKN
13:00 62.2 °F 53.1 °F 30.43 in NNW 2.0 mph 8.0 mph 72% 0.00 in BKN
13:15 63.3 °F 53.8 °F 30.42 in West 2.0 mph 6.0 mph 71% 0.00 in BKN
13:30 63.2 °F 53.3 °F 30.41 in WNW 1.0 mph 7.0 mph 70% 0.00 in BKN
13:45 64.7 °F 53.5 °F 30.41 in West 2.0 mph 7.0 mph 67% 0.00 in BKN
14:00 65.5 °F 53.4 °F 30.40 in SW 1.0 mph 8.0 mph 65% 0.00 in BKN
14:15 65.7 °F 53.2 °F 30.40 in North 2.0 mph 7.0 mph 64% 0.00 in SCT
14:30 65.7 °F 53.2 °F 30.39 in Calm   8.0 mph 64% 0.00 in SCT
14:45 65.9 °F 53.4 °F 30.39 in WSW 1.0 mph 9.0 mph 64% 0.00 in SCT
15:00 66.4 °F 53.0 °F 30.38 in NNE 3.0 mph 7.0 mph 62% 0.00 in SCT
15:15 65.9 °F 53.0 °F 30.38 in WSW 2.0 mph 7.0 mph 63% 0.00 in SCT
15:30 66.2 °F 53.7 °F 30.38 in West 2.0 mph 9.0 mph 64% 0.00 in SCT
15:45 65.9 °F 53.4 °F 30.37 in Calm   6.0 mph 64% 0.00 in SCT
16:00 65.6 °F 53.1 °F 30.37 in South 2.0 mph 6.0 mph 64% 0.00 in SCT
16:15 65.9 °F 53.8 °F 30.37 in Calm   7.0 mph 65% 0.00 in FEW
16:30 66.0 °F 53.5 °F 30.36 in East 1.0 mph 7.0 mph 64% 0.00 in FEW
16:45 64.9 °F 54.1 °F 30.36 in Calm   4.0 mph 68% 0.00 in FEW
17:00 63.4 °F 54.2 °F 30.36 in Calm   4.0 mph 72% 0.00 in FEW
17:15 63.0 °F 54.6 °F 30.36 in Calm   5.0 mph 74% 0.00 in BKN
17:30 62.5 °F 54.9 °F 30.36 in Calm   4.0 mph 76% 0.00 in BKN
17:45 62.0 °F 55.1 °F 30.36 in Calm   3.0 mph 78% 0.00 in BKN
18:00 61.7 °F 55.1 °F 30.37 in Calm   4.0 mph 79% 0.00 in BKN
18:15 61.5 °F 55.6 °F 30.36 in Calm   2.0 mph 81% 0.00 in BKN
18:30 61.3 °F 55.8 °F 30.36 in Calm   2.0 mph 82% 0.00 in BKN
18:45 61.2 °F 56.0 °F 30.36 in Calm   3.0 mph 83% 0.00 in BKN
19:00 61.1 °F 55.9 °F 30.36 in Calm   3.0 mph 83% 0.00 in BKN
19:15 61.0 °F 56.2 °F 30.36 in Calm   3.0 mph 84% 0.00 in OVC
19:30 61.1 °F 56.2 °F 30.36 in Calm   2.0 mph 84% 0.00 in OVC
19:45 61.1 °F 56.6 °F 30.36 in Calm   1.0 mph 85% 0.00 in OVC
20:00 61.0 °F 56.5 °F 30.36 in Calm   1.0 mph 85% 0.00 in OVC
20:15 61.1 °F 56.6 °F 30.36 in Calm     85% 0.00 in OVC
20:30 61.1 °F 56.9 °F 30.36 in Calm   1.0 mph 86% 0.00 in OVC
20:45 61.2 °F 56.7 °F 30.36 in Calm   2.0 mph 85% 0.00 in OVC
21:00 61.1 °F 56.6 °F 30.36 in Calm   3.0 mph 85% 0.00 in OVC
21:45 60.5 °F 56.3 °F 30.35 in Calm   6.0 mph 86% 0.00 in BKN
22:00 60.3 °F 56.4 °F 30.35 in North 1.0 mph 5.0 mph 87% 0.00 in BKN
22:15 60.2 °F 56.6 °F 30.35 in Calm   3.0 mph 88% 0.00 in BKN
22:30 60.3 °F 56.7 °F 30.35 in Calm   1.0 mph 88% 0.00 in BKN
22:45 60.3 °F 56.7 °F 30.35 in Calm   3.0 mph 88% 0.00 in BKN
23:00 60.4 °F 57.1 °F 30.35 in Calm   1.0 mph 89% 0.00 in BKN
23:15 60.4 °F 57.1 °F 30.34 in Calm     89% 0.00 in OVC
23:30 60.3 °F 57.0 °F 30.34 in Calm     89% 0.00 in OVC
23:45 60.3 °F 57.4 °F 30.34 in Calm     90% 0.00 in OVC
TarryTown NY Weather
Compliments of Weather Underground - 1.5 mb